sim
Sign-in with your pilot id or email,
or register
Callsign
Passwort

Schedule Details

Flight Number: DLH2505 (2)
Departure: Manchester Airport (EGCC) at 06:50
Arrival: Munich Airport (EDDM) at 08:45
Route: Lufthansa Passenger Schedule. Enter filed route here before submitting Pirep.

Weather Information
Getting current METAR information for EGCC 211750Z AUTO 30004KT 9999 NCD 18/11 Q1015
Getting current METAR information for EDDM 211750Z VRB01KT CAVOK 16/13 Q1015 NOSIG

Schedule Frequency

Route Map